Time;durP1;ratioP1;P1;durP2;ratioP2;P2;SDS_P1;SDS_P2;PMS_P1;PMS_P2;Temp;Humidity;BMP_temperature;BMP_pressure;BME280_temperature;BME280_humidity;BME280_pressure;Samples;Min_cycle;Max_cycle;Signal;HPM_P1;HPM_P2
2021/10/29 00:01:50;;;;;;;26.83;14.63;;;6.00;97.70;;;;;;6277008;22;20010;-76
2021/10/29 00:04:16;;;;;;;30.30;16.08;;;6.00;97.50;;;;;;6275568;22;20079;-77
2021/10/29 00:06:41;;;;;;;23.58;13.40;;;6.00;97.50;;;;;;6276708;22;20361;-76
2021/10/29 00:09:07;;;;;;;25.85;14.65;;;5.90;96.90;;;;;;6279103;22;20007;-76
2021/10/29 00:11:33;;;;;;;26.33;13.65;;;6.00;98.00;;;;;;6277361;22;20004;-76
2021/10/29 00:14:02;;;;;;;24.70;14.13;;;5.70;98.00;;;;;;6278965;22;20018;-77
2021/10/29 00:16:27;;;;;;;28.13;15.57;;;5.70;97.70;;;;;;6274954;22;20070;-76
2021/10/29 00:18:53;;;;;;;25.33;14.25;;;5.70;97.80;;;;;;6275213;22;20031;-77
2021/10/29 00:21:18;;;;;;;29.40;15.57;;;5.70;97.50;;;;;;6275151;22;20053;-76
2021/10/29 00:23:44;;;;;;;25.70;15.88;;;5.60;97.50;;;;;;6275749;22;20007;-75
2021/10/29 00:26:10;;;;;;;27.88;15.50;;;5.70;96.80;;;;;;6274019;22;20103;-76
2021/10/29 00:28:35;;;;;;;26.40;14.00;;;5.70;97.80;;;;;;6276752;22;20000;-77
2021/10/29 00:31:01;;;;;;;27.60;14.73;;;5.50;97.80;;;;;;6277197;22;20027;-77
2021/10/29 00:33:28;;;;;;;26.98;15.95;;;5.40;97.80;;;;;;6280062;22;20008;-77
2021/10/29 00:35:53;;;;;;;29.90;16.45;;;5.30;97.50;;;;;;6277227;22;20010;-76
2021/10/29 00:38:19;;;;;;;29.42;14.85;;;5.50;97.00;;;;;;6277099;22;20004;-76
2021/10/29 00:40:45;;;;;;;31.88;16.83;;;5.40;97.10;;;;;;6249273;22;20008;-76
2021/10/29 00:43:11;;;;;;;31.70;17.13;;;5.40;97.20;;;;;;6278382;22;20003;-76
2021/10/29 00:45:37;;;;;;;31.45;17.58;;;5.40;96.40;;;;;;6250404;22;19996;-77
2021/10/29 00:48:03;;;;;;;30.35;15.95;;;5.50;96.80;;;;;;6277146;22;20365;-76
2021/10/29 00:50:29;;;;;;;30.98;16.80;;;5.40;96.80;;;;;;6250534;22;20094;-77
2021/10/29 00:52:56;;;;;;;26.55;15.93;;;5.30;97.00;;;;;;6278499;22;20515;-77
2021/10/29 00:55:22;;;;;;;27.75;16.35;;;5.20;96.50;;;;;;6247619;23;20102;-77
2021/10/29 00:57:50;;;;;;;31.92;17.30;;;5.20;96.70;;;;;;6248766;23;20050;-77
2021/10/29 01:00:16;;;;;;;33.17;18.02;;;5.30;95.90;;;;;;6248420;23;20008;-77
2021/10/29 01:02:42;;;;;;;32.35;16.83;;;5.30;96.40;;;;;;6249547;23;20307;-75
2021/10/29 01:05:11;;;;;;;30.58;17.15;;;5.30;96.00;;;;;;6248713;23;20003;-76
2021/10/29 01:07:37;;;;;;;31.08;16.73;;;5.20;96.60;;;;;;6250043;23;20004;-76
2021/10/29 01:10:05;;;;;;;27.85;15.93;;;5.20;96.50;;;;;;6250318;23;20416;-76
2021/10/29 01:12:30;;;;;;;32.72;16.67;;;5.10;96.40;;;;;;6245559;23;20004;-76
2021/10/29 01:14:59;;;;;;;31.38;17.05;;;5.10;96.40;;;;;;6246124;23;20004;-76
2021/10/29 01:17:26;;;;;;;27.23;14.88;;;5.00;96.50;;;;;;6244821;23;20015;-77
2021/10/29 01:19:53;;;;;;;33.67;16.85;;;4.90;96.20;;;;;;6244840;23;20012;-77
2021/10/29 01:22:21;;;;;;;29.67;16.15;;;4.90;96.30;;;;;;6244940;23;20035;-77
2021/10/29 01:24:47;;;;;;;28.33;15.48;;;4.80;96.50;;;;;;6244761;23;20095;-75
2021/10/29 01:27:15;;;;;;;32.95;18.25;;;4.90;94.90;;;;;;6243437;23;20432;-76
2021/10/29 01:29:41;;;;;;;31.17;17.33;;;5.10;94.50;;;;;;6245882;23;20071;-76
2021/10/29 01:32:09;;;;;;;26.10;15.20;;;5.00;95.90;;;;;;6247791;23;20001;-76
2021/10/29 01:34:36;;;;;;;26.05;15.25;;;4.90;95.60;;;;;;6250123;23;20012;-77
2021/10/29 01:37:04;;;;;;;31.00;16.85;;;4.70;95.50;;;;;;6248782;23;20371;-76
2021/10/29 01:39:30;;;;;;;33.28;18.33;;;4.80;95.20;;;;;;6244546;23;20011;-76
2021/10/29 01:41:56;;;;;;;32.22;16.52;;;4.80;95.00;;;;;;6243186;23;20278;-76
2021/10/29 01:44:21;;;;;;;26.45;15.25;;;4.60;95.20;;;;;;6244649;23;20266;-76
2021/10/29 01:46:48;;;;;;;33.28;17.75;;;4.60;95.90;;;;;;6246069;23;20077;-75
2021/10/29 01:49:14;;;;;;;28.52;16.23;;;4.50;95.30;;;;;;6245686;23;20011;-76
2021/10/29 01:51:40;;;;;;;33.58;16.80;;;4.30;96.20;;;;;;6246208;23;20008;-76
2021/10/29 01:54:06;;;;;;;29.13;16.63;;;4.20;95.30;;;;;;6250831;22;20274;-76
2021/10/29 01:56:32;;;;;;;34.55;17.65;;;4.30;95.10;;;;;;6248197;22;20304;-78
2021/10/29 01:58:58;;;;;;;32.28;17.88;;;4.30;94.90;;;;;;6277781;22;20007;-76
2021/10/29 02:01:25;;;;;;;37.25;19.73;;;4.30;94.50;;;;;;6249007;22;20365;-76
2021/10/29 02:03:51;;;;;;;36.00;20.15;;;4.30;95.00;;;;;;6275927;22;20007;-75
2021/10/29 02:06:17;;;;;;;31.52;17.48;;;4.30;94.40;;;;;;6276547;22;19995;-76
2021/10/29 02:08:43;;;;;;;32.03;17.35;;;4.20;94.70;;;;;;6275899;22;20034;-75
2021/10/29 02:11:09;;;;;;;33.33;17.98;;;4.20;93.50;;;;;;6248080;22;20003;-76
2021/10/29 02:13:35;;;;;;;33.42;17.85;;;4.30;94.20;;;;;;6276997;22;20432;-76
2021/10/29 02:16:01;;;;;;;34.08;16.10;;;4.20;94.50;;;;;;6276542;22;20369;-76
2021/10/29 02:18:27;;;;;;;33.25;17.38;;;4.10;94.50;;;;;;6276507;22;20018;-77
2021/10/29 02:20:52;;;;;;;29.25;17.15;;;4.00;94.60;;;;;;6280288;22;20121;-76
2021/10/29 02:23:18;;;;;;;32.58;17.45;;;4.00;93.80;;;;;;6251174;22;20054;-77
2021/10/29 02:25:45;;;;;;;28.27;16.75;;;4.00;93.80;;;;;;6247788;22;19999;-77
2021/10/29 02:28:12;;;;;;;29.48;16.48;;;4.00;93.70;;;;;;6276337;22;20075;-77
2021/10/29 02:30:38;;;;;;;33.40;17.88;;;4.00;94.00;;;;;;6249270;22;20337;-76
2021/10/29 02:33:04;;;;;;;33.92;17.50;;;3.90;94.60;;;;;;6276093;22;20027;-75
2021/10/29 02:35:30;;;;;;;29.13;16.10;;;3.80;94.20;;;;;;6249366;22;20026;-77
2021/10/29 02:37:56;;;;;;;29.02;16.45;;;3.80;94.40;;;;;;6248844;22;20008;-76
2021/10/29 02:40:21;;;;;;;29.08;16.88;;;3.80;93.90;;;;;;6276066;22;20008;-76
2021/10/29 02:42:47;;;;;;;28.20;16.35;;;3.70;94.20;;;;;;6274798;22;20028;-75
2021/10/29 02:45:13;;;;;;;31.50;17.38;;;3.70;93.70;;;;;;6276148;22;20000;-76
2021/10/29 02:47:38;;;;;;;34.85;18.95;;;3.80;92.60;;;;;;6274875;22;19999;-76
2021/10/29 02:50:05;;;;;;;34.20;18.73;;;4.00;91.80;;;;;;6276347;22;19995;-76
2021/10/29 02:52:30;;;;;;;38.75;20.25;;;4.10;92.10;;;;;;6275842;22;20082;-76
2021/10/29 02:54:56;;;;;;;37.55;20.48;;;4.20;91.70;;;;;;6274943;22;20408;-76
2021/10/29 02:57:22;;;;;;;32.28;17.88;;;4.30;92.20;;;;;;6274738;22;20014;-76
2021/10/29 02:59:47;;;;;;;34.20;18.23;;;4.30;92.40;;;;;;6275355;22;20247;-76
2021/10/29 03:02:13;;;;;;;30.17;17.20;;;4.30;92.10;;;;;;6248192;22;20031;-78
2021/10/29 03:04:39;;;;;;;30.70;16.02;;;4.30;92.00;;;;;;6275985;22;20027;-76
2021/10/29 03:07:04;;;;;;;26.50;15.20;;;4.30;92.30;;;;;;6275723;22;20066;-76
2021/10/29 03:09:30;;;;;;;31.95;15.60;;;4.20;93.20;;;;;;6249654;22;20014;-75
2021/10/29 03:12:00;;;;;;;34.97;16.75;;;4.20;92.20;;;;;;6274767;22;20262;-77
2021/10/29 03:14:25;;;;;;;26.48;15.48;;;4.10;93.00;;;;;;6275764;22;20027;-76
2021/10/29 03:16:51;;;;;;;31.42;16.80;;;4.20;92.00;;;;;;6275702;22;20011;-77
2021/10/29 03:19:16;;;;;;;23.98;13.63;;;4.20;92.50;;;;;;6275937;22;20004;-76
2021/10/29 03:21:42;;;;;;;27.70;14.70;;;4.10;92.60;;;;;;6275500;22;20078;-75
2021/10/29 03:24:08;;;;;;;30.10;16.50;;;4.20;91.80;;;;;;6275406;22;20358;-77
2021/10/29 03:26:34;;;;;;;29.58;16.40;;;4.20;92.60;;;;;;6274053;22;20000;-75
2021/10/29 03:28:59;;;;;;;28.13;15.15;;;4.20;92.50;;;;;;6275614;22;20004;-76
2021/10/29 03:31:25;;;;;;;29.88;15.63;;;4.20;92.30;;;;;;6275468;22;20006;-75
2021/10/29 03:33:51;;;;;;;29.80;16.13;;;4.40;91.90;;;;;;6275453;22;20422;-76
2021/10/29 03:36:17;;;;;;;29.88;16.55;;;4.40;92.50;;;;;;6248509;22;20040;-76
2021/10/29 03:38:55;;;;;;;30.13;16.15;;;4.40;92.80;;;;;;6276204;22;20053;-75
2021/10/29 03:41:23;;;;;;;30.13;15.63;;;4.40;92.90;;;;;;6273901;22;20042;-76
2021/10/29 03:43:54;;;;;;;26.25;14.40;;;4.30;93.30;;;;;;6275872;22;20015;-77
2021/10/29 03:46:27;;;;;;;25.38;14.30;;;4.30;93.60;;;;;;6275780;22;20091;-77
2021/10/29 03:51:28;;;;;;;29.73;14.00;;;4.20;93.20;;;;;;6285854;22;20392;-79
2021/10/29 03:56:27;;;;;;;20.70;11.70;;;4.30;92.90;;;;;;6284542;22;20082;-76
2021/10/29 03:58:56;;;;;;;27.80;12.70;;;4.30;93.10;;;;;;6275124;22;20004;-77
2021/10/29 04:01:22;;;;;;;21.80;11.50;;;4.20;93.20;;;;;;6274819;22;20034;-76
2021/10/29 04:03:48;;;;;;;19.45;11.57;;;4.20;93.60;;;;;;6275493;22;20003;-76
2021/10/29 04:06:14;;;;;;;25.40;11.98;;;4.10;93.30;;;;;;6274972;22;20003;-76
2021/10/29 04:08:39;;;;;;;22.38;12.13;;;4.10;93.50;;;;;;6274735;22;20004;-76
2021/10/29 04:11:06;;;;;;;24.00;10.70;;;4.10;93.70;;;;;;6273408;22;20067;-75
2021/10/29 04:13:38;;;;;;;21.95;10.93;;;4.10;93.60;;;;;;6275306;22;20231;-76
2021/10/29 04:16:05;;;;;;;20.42;10.55;;;4.10;93.60;;;;;;6275699;22;20003;-76
2021/10/29 04:18:33;;;;;;;23.90;11.82;;;4.10;94.00;;;;;;6275041;22;20083;-77
2021/10/29 04:20:59;;;;;;;19.50;10.40;;;4.10;94.50;;;;;;6275119;22;20043;-76
2021/10/29 04:23:25;;;;;;;19.42;10.70;;;4.00;94.00;;;;;;6248050;22;20007;-76
2021/10/29 04:25:51;;;;;;;19.90;10.93;;;3.90;94.40;;;;;;6274498;22;20432;-76
2021/10/29 04:28:17;;;;;;;20.60;10.98;;;4.00;94.00;;;;;;6247411;22;20373;-77
2021/10/29 04:30:44;;;;;;;20.60;11.80;;;3.90;94.10;;;;;;6274733;22;20011;-76
2021/10/29 04:33:10;;;;;;;20.23;10.23;;;3.90;94.30;;;;;;6275318;22;20011;-76
2021/10/29 04:35:39;;;;;;;19.80;10.30;;;3.90;93.90;;;;;;6274861;22;20399;-75
2021/10/29 04:38:06;;;;;;;17.90;9.63;;;3.90;93.70;;;;;;6274161;22;20008;-77
2021/10/29 04:40:33;;;;;;;20.70;9.98;;;4.10;93.80;;;;;;6274925;22;20004;-77
2021/10/29 04:43:02;;;;;;;20.15;10.90;;;4.10;94.20;;;;;;6274474;22;20008;-74
2021/10/29 04:45:27;;;;;;;17.30;10.25;;;4.00;94.40;;;;;;6275197;22;19999;-77
2021/10/29 04:47:53;;;;;;;17.23;8.32;;;3.90;95.00;;;;;;6275138;22;20079;-76
2021/10/29 04:50:19;;;;;;;20.05;9.60;;;3.90;94.30;;;;;;6247852;22;20065;-76
2021/10/29 04:52:45;;;;;;;18.33;10.68;;;3.90;94.30;;;;;;6276373;22;20011;-76
2021/10/29 04:55:11;;;;;;;17.98;10.07;;;4.00;94.10;;;;;;6275807;22;20015;-76
2021/10/29 04:57:36;;;;;;;16.85;9.45;;;4.00;94.50;;;;;;6273540;22;20003;-76
2021/10/29 05:00:08;;;;;;;16.35;9.23;;;4.00;94.50;;;;;;6274432;22;20003;-75
2021/10/29 05:02:34;;;;;;;15.75;8.85;;;4.00;94.60;;;;;;6273855;22;20003;-78
2021/10/29 05:05:03;;;;;;;17.90;9.18;;;4.10;94.40;;;;;;6274251;22;20003;-76
2021/10/29 05:07:29;;;;;;;15.55;9.00;;;4.10;94.60;;;;;;6248252;22;20015;-76
2021/10/29 05:09:54;;;;;;;18.08;8.43;;;4.20;94.80;;;;;;6274933;22;19992;-77
2021/10/29 05:12:20;;;;;;;15.93;8.40;;;4.10;95.40;;;;;;6273149;22;19996;-75
2021/10/29 05:14:46;;;;;;;17.10;9.10;;;4.10;95.20;;;;;;6275223;22;20000;-76
2021/10/29 05:17:12;;;;;;;12.93;8.13;;;4.00;95.90;;;;;;6248807;22;20000;-75
2021/10/29 05:19:37;;;;;;;14.40;8.43;;;3.90;95.50;;;;;;6249973;22;20014;-76
2021/10/29 05:22:03;;;;;;;19.42;9.38;;;4.00;95.00;;;;;;6276813;22;20045;-75
2021/10/29 05:24:29;;;;;;;15.32;8.68;;;4.00;94.90;;;;;;6250115;22;20258;-77
2021/10/29 05:26:56;;;;;;;16.67;8.35;;;4.10;95.20;;;;;;6276129;22;20289;-77
2021/10/29 05:29:22;;;;;;;17.85;9.38;;;4.10;95.60;;;;;;6276967;22;19996;-77
2021/10/29 05:31:48;;;;;;;16.63;8.55;;;4.10;95.30;;;;;;6277194;22;20359;-77
2021/10/29 05:34:14;;;;;;;17.40;8.68;;;4.20;95.30;;;;;;6276700;22;20031;-77
2021/10/29 05:36:40;;;;;;;15.70;9.40;;;4.20;95.50;;;;;;6277128;22;20004;-77
2021/10/29 05:39:06;;;;;;;18.92;10.27;;;4.20;96.00;;;;;;6277670;22;20010;-77
2021/10/29 05:41:32;;;;;;;17.20;10.45;;;4.20;95.70;;;;;;6275415;22;20365;-77
2021/10/29 05:44:00;;;;;;;20.55;10.13;;;4.30;95.70;;;;;;6277396;22;20018;-76
2021/10/29 05:46:28;;;;;;;17.40;8.98;;;4.30;96.00;;;;;;6276808;22;20007;-77
2021/10/29 05:48:54;;;;;;;15.35;9.32;;;4.30;96.20;;;;;;6277135;22;20392;-77
2021/10/29 05:51:22;;;;;;;15.43;8.38;;;4.30;96.40;;;;;;6276864;22;20030;-78
2021/10/29 05:56:17;;;;;;;18.23;10.35;;;4.30;96.20;;;;;;6287195;22;20064;-77
2021/10/29 05:58:43;;;;;;;18.38;9.57;;;4.40;96.30;;;;;;6278487;22;20007;-77
2021/10/29 06:01:09;;;;;;;15.55;8.85;;;4.40;96.30;;;;;;6276585;22;19996;-77
2021/10/29 06:03:41;;;;;;;15.75;9.02;;;4.50;96.30;;;;;;6276247;22;20031;-77
2021/10/29 06:06:07;;;;;;;16.80;9.25;;;4.50;96.20;;;;;;6277040;22;20003;-77
2021/10/29 06:08:35;;;;;;;15.02;8.95;;;4.50;96.50;;;;;;6276573;22;20377;-78
2021/10/29 06:11:01;;;;;;;16.80;9.27;;;4.50;96.40;;;;;;6248578;22;20079;-77
2021/10/29 06:13:27;;;;;;;17.85;9.57;;;4.50;96.50;;;;;;6280127;22;20113;-77
2021/10/29 06:15:52;;;;;;;19.63;10.10;;;4.60;96.10;;;;;;6253871;22;20043;-77
2021/10/29 06:18:25;;;;;;;18.30;10.18;;;4.60;96.30;;;;;;6280606;22;20261;-77
2021/10/29 06:20:53;;;;;;;17.08;9.52;;;4.70;96.10;;;;;;6280984;22;20071;-77
2021/10/29 06:23:22;;;;;;;15.52;8.98;;;4.90;96.50;;;;;;6280320;22;20008;-76
2021/10/29 06:25:49;;;;;;;16.75;8.52;;;5.00;96.70;;;;;;6279389;22;19996;-76
2021/10/29 06:28:20;;;;;;;18.52;8.73;;;5.00;97.10;;;;;;6280790;22;19997;-77
2021/10/29 06:30:47;;;;;;;16.00;8.43;;;5.10;97.50;;;;;;6279652;22;19996;-76
2021/10/29 06:33:20;;;;;;;12.73;7.82;;;5.10;97.40;;;;;;6280619;22;20003;-76
2021/10/29 06:35:47;;;;;;;17.05;8.52;;;5.20;97.60;;;;;;6253821;22;20008;-78
2021/10/29 06:38:13;;;;;;;12.45;7.22;;;5.20;97.90;;;;;;6280489;22;20030;-79
2021/10/29 06:40:43;;;;;;;16.17;8.25;;;5.20;97.60;;;;;;6279094;22;20077;-77
2021/10/29 06:43:15;;;;;;;14.93;7.50;;;5.30;97.70;;;;;;6280223;22;20030;-78
2021/10/29 06:48:31;;;;;;;12.65;7.55;;;5.50;98.00;;;;;;6290799;22;20007;-77
2021/10/29 07:40:04;;;;;;;9.07;4.57;;;9.40;98.00;;;;;;6279871;22;20140;-77
2021/10/29 07:42:49;;;;;;;7.35;4.10;;;9.70;98.00;;;;;;6278279;22;19999;-77
2021/10/29 07:45:14;;;;;;;9.18;3.90;;;10.10;98.00;;;;;;6279534;22;20003;-78
2021/10/29 07:47:42;;;;;;;6.75;3.60;;;10.60;98.00;;;;;;6279951;22;20067;-78
2021/10/29 07:50:11;;;;;;;6.43;3.08;;;10.70;98.00;;;;;;6279841;22;20003;-78
2021/10/29 07:52:38;;;;;;;7.75;3.22;;;10.70;97.40;;;;;;6253205;22;20004;-78
2021/10/29 07:55:07;;;;;;;7.68;3.13;;;11.50;98.00;;;;;;6279365;22;20015;-78
2021/10/29 07:57:32;;;;;;;6.18;2.88;;;12.60;97.30;;;;;;6278487;22;20037;-77
2021/10/29 07:59:58;;;;;;;9.45;4.68;;;13.70;92.60;;;;;;6280224;22;20292;-78
2021/10/29 08:02:27;;;;;;;9.65;5.65;;;13.90;86.30;;;;;;6279732;22;20000;-78
2021/10/29 08:04:52;;;;;;;10.55;5.80;;;14.10;86.00;;;;;;6279587;22;20000;-77
2021/10/29 08:07:18;;;;;;;15.32;7.75;;;14.10;84.80;;;;;;6279706;22;20003;-77
2021/10/29 08:09:45;;;;;;;16.80;7.05;;;13.40;84.80;;;;;;6280087;22;20004;-78
2021/10/29 08:12:12;;;;;;;13.32;6.82;;;12.60;87.50;;;;;;6278153;22;20079;-76
2021/10/29 08:14:39;;;;;;;12.27;6.05;;;12.30;88.50;;;;;;6252751;22;20054;-78
2021/10/29 08:17:05;;;;;;;11.45;5.90;;;12.20;88.80;;;;;;6279737;22;20377;-78
2021/10/29 08:19:32;;;;;;;11.82;6.90;;;12.10;88.60;;;;;;6279820;22;20050;-77
2021/10/29 08:21:59;;;;;;;14.68;7.13;;;12.10;90.10;;;;;;6252842;22;20027;-77
2021/10/29 08:24:26;;;;;;;16.48;8.18;;;12.40;89.90;;;;;;6279208;22;20041;-78
2021/10/29 08:26:52;;;;;;;17.40;8.35;;;12.80;88.30;;;;;;6277844;22;20030;-77
2021/10/29 08:29:19;;;;;;;20.73;9.32;;;12.80;87.80;;;;;;6252754;22;20362;-78
2021/10/29 08:31:45;;;;;;;20.73;9.18;;;12.80;87.10;;;;;;6279756;22;20325;-78
2021/10/29 08:34:10;;;;;;;17.83;9.48;;;13.00;86.20;;;;;;6279411;22;20070;-78
2021/10/29 08:36:39;;;;;;;23.77;10.85;;;12.40;85.90;;;;;;6279678;22;20005;-77
2021/10/29 08:39:07;;;;;;;23.23;11.52;;;12.00;88.10;;;;;;6279512;22;20003;-77
2021/10/29 08:41:34;;;;;;;27.10;14.60;;;11.90;89.10;;;;;;6250912;22;20361;-77
2021/10/29 08:44:00;;;;;;;21.17;12.50;;;11.70;88.90;;;;;;6279650;22;20004;-77
2021/10/29 08:46:28;;;;;;;17.58;11.15;;;11.50;89.40;;;;;;6279414;22;20000;-78
2021/10/29 08:48:57;;;;;;;22.55;12.48;;;11.40;88.70;;;;;;6279471;22;20006;-77
2021/10/29 08:51:22;;;;;;;25.02;12.75;;;11.10;89.80;;;;;;6279690;22;20123;-78
2021/10/29 08:53:48;;;;;;;20.83;11.30;;;11.10;90.20;;;;;;6280371;22;20087;-77
2021/10/29 08:56:15;;;;;;;15.30;9.88;;;10.90;90.50;;;;;;6253060;22;20042;-77
2021/10/29 08:59:14;;;;;;;15.98;9.85;;;10.90;91.60;;;;;;6281432;22;20010;-78
2021/10/29 09:01:53;;;;;;;13.93;8.40;;;11.80;90.40;;;;;;6281625;22;20327;-78
2021/10/29 09:04:32;;;;;;;13.20;8.30;;;12.70;88.00;;;;;;6281547;22;20246;-78
2021/10/29 09:31:33;;;;;;;10.50;6.38;;;17.70;74.70;;;;;;6281360;22;20069;-78
2021/10/29 09:34:06;;;;;;;9.70;5.18;;;17.70;74.20;;;;;;6281286;22;20008;-78
2021/10/29 09:36:40;;;;;;;11.85;6.57;;;17.10;76.00;;;;;;6254077;22;20067;-78
2021/10/29 09:39:13;;;;;;;14.55;7.60;;;17.30;76.50;;;;;;6281057;22;20304;-78
2021/10/29 09:41:40;;;;;;;12.25;7.50;;;18.00;73.90;;;;;;6252632;22;20011;-78
2021/10/29 09:44:12;;;;;;;19.85;9.63;;;18.60;71.20;;;;;;6254049;22;20007;-77
2021/10/29 09:49:35;;;;;;;12.85;6.10;;;18.40;70.50;;;;;;6291533;22;20004;-77
2021/10/29 09:57:20;;;;;;;13.27;7.20;;;16.60;75.00;;;;;;6289676;22;20065;-78
2021/10/29 09:59:45;;;;;;;12.38;6.75;;;16.40;76.60;;;;;;6253541;22;20041;-77
2021/10/29 10:02:19;;;;;;;12.02;6.32;;;16.60;77.40;;;;;;6280545;22;20004;-77
2021/10/29 10:04:48;;;;;;;11.13;6.78;;;16.60;76.60;;;;;;6254196;22;20000;-77
2021/10/29 10:07:15;;;;;;;12.85;8.25;;;16.30;78.00;;;;;;6280953;22;20000;-77
2021/10/29 10:09:42;;;;;;;14.63;7.90;;;15.90;78.00;;;;;;6280603;22;20002;-77
2021/10/29 10:12:09;;;;;;;14.40;7.72;;;15.30;80.30;;;;;;6279070;22;20393;-78
2021/10/29 10:14:35;;;;;;;17.10;9.10;;;14.70;81.40;;;;;;6280835;22;20040;-77
2021/10/29 10:17:01;;;;;;;18.95;9.13;;;14.40;82.90;;;;;;6254056;22;20014;-77
2021/10/29 10:19:26;;;;;;;20.23;8.82;;;14.70;82.70;;;;;;6253933;22;20007;-78
2021/10/29 10:21:55;;;;;;;17.42;8.77;;;15.10;81.80;;;;;;6280753;22;20306;-77
2021/10/29 10:24:25;;;;;;;14.32;8.15;;;15.40;79.90;;;;;;6280621;22;20057;-77
2021/10/29 10:49:14;;;;;;;12.90;6.70;;;16.10;78.10;;;;;;6290186;22;20433;-77
2021/10/29 10:54:42;;;;;;;12.10;7.07;;;16.30;77.60;;;;;;6287729;22;20016;-77
2021/10/29 11:05:58;;;;;;;10.82;6.80;;;16.80;76.40;;;;;;6289557;22;20008;-78
2021/10/29 11:11:21;;;;;;;9.48;6.50;;;17.10;75.80;;;;;;6277404;22;20007;-76
2021/10/29 11:13:57;;;;;;;10.70;6.18;;;17.50;74.30;;;;;;6277271;22;20000;-76
2021/10/29 11:16:23;;;;;;;12.13;6.43;;;17.80;74.00;;;;;;6276447;22;20053;-76
2021/10/29 11:19:28;;;;;;;10.98;6.63;;;17.80;72.90;;;;;;6277362;22;20007;-76
2021/10/29 11:21:56;;;;;;;12.48;6.15;;;18.00;71.70;;;;;;6279974;22;20106;-76
2021/10/29 11:24:41;;;;;;;10.80;6.25;;;17.70;70.60;;;;;;6279945;22;20006;-76
2021/10/29 11:27:16;;;;;;;11.45;6.30;;;17.40;72.40;;;;;;6278309;22;20067;-76
2021/10/29 11:29:55;;;;;;;10.18;5.78;;;17.20;72.10;;;;;;6253093;22;19995;-76
2021/10/29 11:32:22;;;;;;;10.40;6.10;;;16.90;72.80;;;;;;6252495;22;20026;-75
2021/10/29 11:34:59;;;;;;;12.70;6.13;;;16.90;73.80;;;;;;6278468;22;19996;-76
2021/10/29 11:37:33;;;;;;;9.30;5.38;;;17.10;73.70;;;;;;6252478;22;20029;-76
2021/10/29 11:40:00;;;;;;;;;;;17.50;72.50;;;;;;6279870;22;20014;-76
2021/10/29 11:42:28;;;;;;;9.52;5.90;;;18.10;68.80;;;;;;6277867;22;20208;-77
2021/10/29 11:44:57;;;;;;;9.50;5.72;;;18.80;69.10;;;;;;6279553;22;20010;-75
2021/10/29 11:47:24;;;;;;;8.57;5.75;;;19.00;68.70;;;;;;6279160;22;20362;-76
2021/10/29 11:49:50;;;;;;;9.38;5.07;;;18.90;70.20;;;;;;6279625;22;20004;-76
2021/10/29 11:52:19;;;;;;;9.75;5.18;;;19.20;69.10;;;;;;6279484;22;20003;-75
2021/10/29 11:54:48;;;;;;;8.88;4.68;;;19.20;68.70;;;;;;6279097;22;20019;-75
2021/10/29 11:58:09;;;;;;;8.63;5.07;;;19.20;67.80;;;;;;6278200;22;19999;-75
2021/10/29 12:00:31;;;;;;;8.52;4.70;;;18.60;68.60;;;;;;6267902;22;20004;-76
2021/10/29 12:05:52;;;;;;;9.70;5.20;;;18.20;69.60;;;;;;6279337;22;20431;-76
2021/10/29 12:08:26;;;;;;;8.77;5.22;;;18.20;68.20;;;;;;6279458;22;19996;-75
2021/10/29 12:11:02;;;;;;;9.32;5.25;;;18.10;69.80;;;;;;6278121;22;20388;-76
2021/10/29 12:13:30;;;;;;;7.97;4.80;;;17.80;67.80;;;;;;6279747;22;20006;-76
2021/10/29 12:15:57;;;;;;;8.45;4.72;;;17.60;68.60;;;;;;6252452;22;20438;-75
2021/10/29 12:18:36;;;;;;;7.13;3.65;;;17.60;67.80;;;;;;6279236;22;20011;-75
2021/10/29 12:21:02;;;;;;;8.32;4.05;;;17.90;66.00;;;;;;6278986;22;20074;-76
2021/10/29 12:23:30;;;;;;;6.35;3.28;;;18.00;66.40;;;;;;6279305;22;20262;-76
2021/10/29 12:28:36;;;;;;;8.23;3.88;;;18.20;64.60;;;;;;6290478;22;20307;-75
2021/10/29 13:01:37;;;;;;;9.70;3.60;;;19.00;62.60;;;;;;6291120;22;20014;-76
2021/10/29 13:04:09;;;;;;;8.40;3.13;;;18.80;64.30;;;;;;6253941;22;20068;-75
2021/10/29 13:06:41;;;;;;;7.68;3.17;;;18.70;64.00;;;;;;6280832;22;20074;-76
2021/10/29 13:09:24;;;;;;;7.10;3.47;;;18.70;64.20;;;;;;6280831;22;19999;-76
2021/10/29 13:11:57;;;;;;;7.68;3.20;;;18.60;64.10;;;;;;6252538;22;20004;-76
2021/10/29 13:14:50;;;;;;;7.57;3.30;;;18.40;64.50;;;;;;6280081;22;20004;-77
2021/10/29 13:17:14;;;;;;;6.57;3.03;;;18.30;64.20;;;;;;6279920;22;20003;-75
2021/10/29 14:32:29;;;;;;;3.90;1.95;;;15.20;77.20;;;;;;6288815;22;19904;-78
2021/10/29 14:34:58;;;;;;;8.88;2.28;;;15.40;75.50;;;;;;6279337;22;20360;-78
2021/10/29 14:40:22;;;;;;;5.80;2.05;;;15.70;74.90;;;;;;6279237;22;20004;-78
2021/10/29 14:42:54;;;;;;;4.30;1.85;;;16.10;75.20;;;;;;6276499;22;20007;-78
2021/10/29 14:45:35;;;;;;;4.40;1.73;;;16.80;74.00;;;;;;6279342;22;20301;-78
2021/10/29 14:48:39;;;;;;;3.38;1.50;;;17.40;71.10;;;;;;6280554;22;20046;-79
2021/10/29 15:02:12;;;;;;;11.15;4.95;;;16.80;71.10;;;;;;6280482;22;20011;-78
2021/10/29 15:18:03;;;;;;;4.22;1.35;;;17.70;67.70;;;;;;6290968;22;19999;-79
2021/10/29 15:26:02;;;;;;;5.25;1.40;;;17.40;67.60;;;;;;6289505;22;20010;-78
2021/10/29 15:31:24;;;;;;;4.57;1.80;;;17.10;68.40;;;;;;6290240;22;20026;-78
2021/10/29 15:44:42;;;;;;;5.97;1.85;;;15.20;73.50;;;;;;6290629;22;20015;-78
2021/10/29 15:47:11;;;;;;;4.20;1.80;;;14.80;73.20;;;;;;6280108;22;20027;-77
2021/10/29 15:49:38;;;;;;;4.60;2.08;;;14.40;73.70;;;;;;6280017;22;20007;-77
2021/10/29 15:52:13;;;;;;;3.75;1.83;;;14.10;73.10;;;;;;6279769;22;19996;-77
2021/10/29 15:54:49;;;;;;;4.30;1.80;;;13.50;76.30;;;;;;6247805;23;20323;-77
2021/10/29 15:57:22;;;;;;;10.80;2.00;;;12.60;78.70;;;;;;6247556;22;20396;-77
2021/10/29 15:59:58;;;;;;;3.55;1.70;;;11.80;80.80;;;;;;6249317;22;20004;-77
2021/10/29 16:18:39;;;;;;;5.13;2.47;;;9.80;87.30;;;;;;6249276;23;20011;-78
2021/10/29 16:21:08;;;;;;;4.68;2.35;;;9.60;87.90;;;;;;6249050;22;20316;-77
2021/10/29 16:23:34;;;;;;;4.53;2.30;;;9.60;87.50;;;;;;6249118;22;20004;-76
2021/10/29 16:26:04;;;;;;;6.05;3.08;;;9.50;87.10;;;;;;6247620;22;20055;-77
2021/10/29 16:28:32;;;;;;;5.15;2.53;;;9.40;86.40;;;;;;6249342;22;20030;-77
2021/10/29 16:30:59;;;;;;;5.13;2.65;;;9.40;87.40;;;;;;6248821;22;20079;-77
2021/10/29 16:35:56;;;;;;;11.25;6.65;;;9.20;87.10;;;;;;6259507;22;20055;-78
2021/10/29 16:38:23;;;;;;;6.47;2.55;;;9.10;86.40;;;;;;6248915;22;20004;-78
2021/10/29 16:40:48;;;;;;;6.03;2.40;;;9.10;85.90;;;;;;6246474;22;20143;-76
2021/10/29 16:43:15;;;;;;;6.13;3.05;;;9.10;86.20;;;;;;6249094;23;20377;-78
2021/10/29 16:45:47;;;;;;;7.90;2.92;;;9.00;86.20;;;;;;6248649;22;20078;-77
2021/10/29 16:48:17;;;;;;;5.93;2.67;;;9.00;85.80;;;;;;6248094;22;20000;-77
2021/10/29 16:50:44;;;;;;;5.65;2.70;;;9.00;86.20;;;;;;6246202;23;20004;-77
2021/10/29 16:53:10;;;;;;;4.63;2.35;;;8.80;86.70;;;;;;6248854;22;20007;-77
2021/10/29 16:55:37;;;;;;;5.63;2.40;;;8.70;87.10;;;;;;6268023;22;20015;-78
2021/10/29 16:58:04;;;;;;;4.80;2.42;;;8.60;86.70;;;;;;6279433;22;20312;-78
2021/10/29 17:00:32;;;;;;;4.50;1.90;;;8.60;86.10;;;;;;6279469;22;20459;-78
2021/10/29 17:02:58;;;;;;;4.22;1.95;;;8.60;85.70;;;;;;6279317;22;19996;-78
2021/10/29 17:05:25;;;;;;;4.15;2.10;;;8.70;85.30;;;;;;6239444;22;20079;-78
2021/10/29 17:07:50;;;;;;;4.30;2.20;;;8.70;85.30;;;;;;6218795;23;20008;-78
2021/10/29 17:10:19;;;;;;;4.60;2.45;;;8.60;85.60;;;;;;6218288;23;20357;-78
2021/10/29 17:12:48;;;;;;;3.50;1.80;;;8.50;85.50;;;;;;6217216;23;20004;-77
2021/10/29 17:15:16;;;;;;;4.65;2.03;;;8.50;85.30;;;;;;6218821;23;20008;-80
2021/10/29 17:17:47;;;;;;;5.53;2.30;;;8.50;85.00;;;;;;6218455;23;20005;-77
2021/10/29 17:20:15;;;;;;;7.35;3.63;;;8.50;84.90;;;;;;6219666;23;20005;-77
2021/10/29 17:22:41;;;;;;;13.00;6.68;;;8.50;84.60;;;;;;6219964;23;20059;-77
2021/10/29 17:25:09;;;;;;;5.45;2.67;;;8.50;84.70;;;;;;6218583;23;20353;-76
2021/10/29 17:27:35;;;;;;;3.33;1.90;;;8.50;84.80;;;;;;6218959;23;20132;-78
2021/10/29 17:30:01;;;;;;;5.13;2.15;;;8.40;84.90;;;;;;6219863;23;20003;-77
2021/10/29 17:32:26;;;;;;;8.57;4.10;;;8.40;85.30;;;;;;6219994;23;20004;-77
2021/10/29 17:34:52;;;;;;;4.97;2.55;;;8.30;85.30;;;;;;6219055;23;20004;-76
2021/10/29 17:37:18;;;;;;;4.97;2.05;;;8.30;85.90;;;;;;6219840;23;20332;-77
2021/10/29 17:39:44;;;;;;;4.68;2.30;;;8.20;86.10;;;;;;6219195;23;20028;-77
2021/10/29 17:42:12;;;;;;;3.70;1.73;;;8.20;85.80;;;;;;6218334;23;20370;-77
2021/10/29 17:44:39;;;;;;;7.05;2.40;;;8.20;85.90;;;;;;6219535;23;20004;-76
2021/10/29 17:47:06;;;;;;;5.35;1.95;;;8.20;85.80;;;;;;6219846;23;20004;-77
2021/10/29 17:49:32;;;;;;;5.07;2.58;;;8.20;85.80;;;;;;6219741;23;20008;-78
2021/10/29 17:52:02;;;;;;;4.82;2.42;;;8.10;86.20;;;;;;6218541;23;20126;-78